sensor_id;sensor_type;location;lat;lon;timestamp;pressure;altitude;pressure_sealevel;temperature;humidity
50867;BME280;36839;51.946;21.002;2022-09-24T00:01:47;100224.70;;;4.29;100.00
50867;BME280;36839;51.946;21.002;2022-09-24T00:04:15;100225.23;;;4.29;100.00
50867;BME280;36839;51.946;21.002;2022-09-24T00:06:44;100225.77;;;4.28;100.00
50867;BME280;36839;51.946;21.002;2022-09-24T00:09:12;100225.77;;;4.28;100.00
50867;BME280;36839;51.946;21.002;2022-09-24T00:11:42;100228.64;;;4.24;100.00
50867;BME280;36839;51.946;21.002;2022-09-24T00:14:10;100212.94;;;4.11;100.00
50867;BME280;36839;51.946;21.002;2022-09-24T00:16:38;100212.94;;;4.11;100.00
50867;BME280;36839;51.946;21.002;2022-09-24T00:19:07;100211.64;;;4.04;100.00
50867;BME280;36839;51.946;21.002;2022-09-24T00:21:35;100214.53;;;3.91;100.00
50867;BME280;36839;51.946;21.002;2022-09-24T00:24:14;100214.53;;;3.91;100.00
50867;BME280;36839;51.946;21.002;2022-09-24T00:26:43;100213.53;;;3.85;100.00
50867;BME280;36839;51.946;21.002;2022-09-24T00:29:18;100213.53;;;3.85;100.00
50867;BME280;36839;51.946;21.002;2022-09-24T00:31:49;100211.56;;;3.83;100.00
50867;BME280;36839;51.946;21.002;2022-09-24T00:34:17;100211.56;;;3.83;100.00
50867;BME280;36839;51.946;21.002;2022-09-24T00:36:44;100211.56;;;3.83;100.00
50867;BME280;36839;51.946;21.002;2022-09-24T00:39:12;100214.30;;;3.83;100.00
50867;BME280;36839;51.946;21.002;2022-09-24T00:41:39;100214.30;;;3.83;100.00
50867;BME280;36839;51.946;21.002;2022-09-24T00:44:44;100203.53;;;3.79;100.00
50867;BME280;36839;51.946;21.002;2022-09-24T00:49:56;100205.63;;;3.77;100.00
50867;BME280;36839;51.946;21.002;2022-09-24T00:52:22;100198.27;;;3.78;100.00
50867;BME280;36839;51.946;21.002;2022-09-24T00:54:51;100198.27;;;3.78;100.00
50867;BME280;36839;51.946;21.002;2022-09-24T00:57:19;100196.06;;;3.68;100.00
50867;BME280;36839;51.946;21.002;2022-09-24T00:59:46;100196.06;;;3.68;100.00
50867;BME280;36839;51.946;21.002;2022-09-24T01:02:13;100208.44;;;3.61;100.00
50867;BME280;36839;51.946;21.002;2022-09-24T01:04:40;100208.86;;;3.58;100.00
50867;BME280;36839;51.946;21.002;2022-09-24T01:07:06;100195.14;;;3.56;100.00
50867;BME280;36839;51.946;21.002;2022-09-24T01:09:33;100195.14;;;3.56;100.00
50867;BME280;36839;51.946;21.002;2022-09-24T01:12:13;100202.63;;;3.42;100.00
50867;BME280;36839;51.946;21.002;2022-09-24T01:18:01;100184.03;;;3.32;100.00
50867;BME280;36839;51.946;21.002;2022-09-24T01:28:06;100183.48;;;3.24;100.00
50867;BME280;36839;51.946;21.002;2022-09-24T01:30:32;100190.83;;;3.23;100.00
50867;BME280;36839;51.946;21.002;2022-09-24T01:33:03;100184.84;;;3.24;100.00
50867;BME280;36839;51.946;21.002;2022-09-24T01:35:37;100184.84;;;3.24;100.00
50867;BME280;36839;51.946;21.002;2022-09-24T01:38:10;100181.05;;;3.25;100.00
50867;BME280;36839;51.946;21.002;2022-09-24T01:40:41;100181.05;;;3.25;100.00
50867;BME280;36839;51.946;21.002;2022-09-24T01:43:09;100180.75;;;3.24;100.00
50867;BME280;36839;51.946;21.002;2022-09-24T01:45:37;100184.54;;;3.23;100.00
50867;BME280;36839;51.946;21.002;2022-09-24T01:48:07;100180.64;;;3.21;100.00
50867;BME280;36839;51.946;21.002;2022-09-24T01:50:47;100191.56;;;3.21;100.00
50867;BME280;36839;51.946;21.002;2022-09-24T01:53:23;100191.56;;;3.21;100.00
50867;BME280;36839;51.946;21.002;2022-09-24T01:55:54;100181.93;;;3.19;100.00
50867;BME280;36839;51.946;21.002;2022-09-24T01:58:27;100188.15;;;3.17;100.00
50867;BME280;36839;51.946;21.002;2022-09-24T02:00:57;100181.25;;;3.14;100.00
50867;BME280;36839;51.946;21.002;2022-09-24T02:03:28;100181.25;;;3.14;100.00
50867;BME280;36839;51.946;21.002;2022-09-24T02:06:11;100187.24;;;3.13;100.00
50867;BME280;36839;51.946;21.002;2022-09-24T02:08:39;100182.16;;;3.17;100.00
50867;BME280;36839;51.946;21.002;2022-09-24T02:11:20;100180.19;;;3.15;100.00
50867;BME280;36839;51.946;21.002;2022-09-24T02:13:53;100186.60;;;3.11;100.00
50867;BME280;36839;51.946;21.002;2022-09-24T02:16:20;100182.59;;;3.05;100.00
50867;BME280;36839;51.946;21.002;2022-09-24T02:18:53;100180.81;;;3.01;100.00
50867;BME280;36839;51.946;21.002;2022-09-24T02:21:22;100180.81;;;3.01;100.00
50867;BME280;36839;51.946;21.002;2022-09-24T02:24:09;100181.03;;;3.00;100.00
50867;BME280;36839;51.946;21.002;2022-09-24T02:26:35;100180.96;;;2.97;100.00
50867;BME280;36839;51.946;21.002;2022-09-24T02:29:01;100180.96;;;2.97;100.00
50867;BME280;36839;51.946;21.002;2022-09-24T02:31:36;100183.20;;;2.91;100.00
50867;BME280;36839;51.946;21.002;2022-09-24T02:34:06;100184.18;;;2.88;100.00
50867;BME280;36839;51.946;21.002;2022-09-24T02:37:02;100184.18;;;2.88;100.00
50867;BME280;36839;51.946;21.002;2022-09-24T02:39:27;100181.68;;;2.86;100.00
50867;BME280;36839;51.946;21.002;2022-09-24T02:41:59;100180.27;;;2.77;100.00
50867;BME280;36839;51.946;21.002;2022-09-24T02:44:26;100175.16;;;2.71;100.00
50867;BME280;36839;51.946;21.002;2022-09-24T02:46:54;100175.53;;;2.66;100.00
50867;BME280;36839;51.946;21.002;2022-09-24T02:49:24;100175.64;;;2.62;100.00
50867;BME280;36839;51.946;21.002;2022-09-24T02:51:50;100175.56;;;2.59;100.00
50867;BME280;36839;51.946;21.002;2022-09-24T02:54:18;100167.08;;;2.58;100.00
50867;BME280;36839;51.946;21.002;2022-09-24T02:56:44;100168.67;;;2.56;100.00
50867;BME280;36839;51.946;21.002;2022-09-24T02:59:10;100163.33;;;2.52;100.00
50867;BME280;36839;51.946;21.002;2022-09-24T03:01:37;100163.33;;;2.52;100.00
50867;BME280;36839;51.946;21.002;2022-09-24T03:04:05;100159.69;;;2.49;100.00
50867;BME280;36839;51.946;21.002;2022-09-24T03:06:32;100167.59;;;2.42;100.00
50867;BME280;36839;51.946;21.002;2022-09-24T03:08:58;100167.28;;;2.41;100.00
50867;BME280;36839;51.946;21.002;2022-09-24T03:11:26;100167.28;;;2.41;100.00
50867;BME280;36839;51.946;21.002;2022-09-24T03:13:54;100166.67;;;2.39;100.00
50867;BME280;36839;51.946;21.002;2022-09-24T03:16:23;100155.77;;;2.39;100.00
50867;BME280;36839;51.946;21.002;2022-09-24T03:18:50;100154.63;;;2.37;100.00
50867;BME280;36839;51.946;21.002;2022-09-24T03:21:18;100160.27;;;2.36;100.00
50867;BME280;36839;51.946;21.002;2022-09-24T03:23:47;100153.60;;;2.32;100.00
50867;BME280;36839;51.946;21.002;2022-09-24T03:26:16;100162.22;;;2.28;100.00
50867;BME280;36839;51.946;21.002;2022-09-24T03:28:49;100162.22;;;2.28;100.00
50867;BME280;36839;51.946;21.002;2022-09-24T03:31:15;100159.55;;;2.15;100.00
50867;BME280;36839;51.946;21.002;2022-09-24T03:33:44;100158.65;;;2.06;100.00
50867;BME280;36839;51.946;21.002;2022-09-24T03:36:20;100166.34;;;1.99;100.00
50867;BME280;36839;51.946;21.002;2022-09-24T03:38:46;100166.34;;;1.99;100.00
50867;BME280;36839;51.946;21.002;2022-09-24T03:41:13;100162.27;;;1.93;100.00
50867;BME280;36839;51.946;21.002;2022-09-24T03:43:41;100171.52;;;1.85;100.00
50867;BME280;36839;51.946;21.002;2022-09-24T03:46:10;100165.98;;;1.83;100.00
50867;BME280;36839;51.946;21.002;2022-09-24T03:48:40;100175.73;;;1.81;100.00
50867;BME280;36839;51.946;21.002;2022-09-24T03:53:37;100164.32;;;1.75;100.00
50867;BME280;36839;51.946;21.002;2022-09-24T03:56:07;100170.30;;;1.75;100.00
50867;BME280;36839;51.946;21.002;2022-09-24T03:58:37;100170.30;;;1.75;100.00
50867;BME280;36839;51.946;21.002;2022-09-24T04:01:07;100166.43;;;1.73;100.00
50867;BME280;36839;51.946;21.002;2022-09-24T04:03:39;100170.20;;;1.72;100.00
50867;BME280;36839;51.946;21.002;2022-09-24T04:06:06;100170.20;;;1.72;100.00
50867;BME280;36839;51.946;21.002;2022-09-24T04:08:35;100165.81;;;1.71;100.00
50867;BME280;36839;51.946;21.002;2022-09-24T04:11:04;100165.81;;;1.71;100.00
50867;BME280;36839;51.946;21.002;2022-09-24T04:13:33;100168.94;;;1.75;100.00
50867;BME280;36839;51.946;21.002;2022-09-24T04:16:03;100165.02;;;1.86;100.00
50867;BME280;36839;51.946;21.002;2022-09-24T04:18:30;100165.02;;;1.86;100.00
50867;BME280;36839;51.946;21.002;2022-09-24T04:20:58;100161.13;;;1.91;100.00
50867;BME280;36839;51.946;21.002;2022-09-24T04:23:28;100163.02;;;1.91;100.00
50867;BME280;36839;51.946;21.002;2022-09-24T04:25:57;100157.05;;;1.91;100.00
50867;BME280;36839;51.946;21.002;2022-09-24T04:28:28;100157.05;;;1.91;100.00
50867;BME280;36839;51.946;21.002;2022-09-24T04:30:57;100160.55;;;1.98;100.00
50867;BME280;36839;51.946;21.002;2022-09-24T04:33:27;100164.54;;;2.03;100.00
50867;BME280;36839;51.946;21.002;2022-09-24T04:35:53;100162.20;;;2.06;100.00
50867;BME280;36839;51.946;21.002;2022-09-24T04:38:20;100166.80;;;2.12;100.00
50867;BME280;36839;51.946;21.002;2022-09-24T04:40:48;100171.28;;;2.16;100.00
50867;BME280;36839;51.946;21.002;2022-09-24T04:43:16;100171.28;;;2.16;100.00
50867;BME280;36839;51.946;21.002;2022-09-24T04:45:44;100160.44;;;2.25;100.00
50867;BME280;36839;51.946;21.002;2022-09-24T04:48:12;100160.44;;;2.25;100.00
50867;BME280;36839;51.946;21.002;2022-09-24T04:50:39;100169.73;;;2.33;100.00
50867;BME280;36839;51.946;21.002;2022-09-24T04:53:09;100169.73;;;2.33;100.00
50867;BME280;36839;51.946;21.002;2022-09-24T04:55:36;100170.56;;;2.34;100.00
50867;BME280;36839;51.946;21.002;2022-09-24T04:58:04;100171.40;;;2.34;100.00
50867;BME280;36839;51.946;21.002;2022-09-24T05:00:30;100170.87;;;2.35;100.00
50867;BME280;36839;51.946;21.002;2022-09-24T05:03:02;100170.87;;;2.35;100.00
50867;BME280;36839;51.946;21.002;2022-09-24T05:05:32;100172.84;;;2.37;100.00
50867;BME280;36839;51.946;21.002;2022-09-24T05:08:01;100174.48;;;2.44;100.00
50867;BME280;36839;51.946;21.002;2022-09-24T05:10:30;100165.72;;;2.58;100.00
50867;BME280;36839;51.946;21.002;2022-09-24T05:12:59;100163.88;;;2.68;100.00
50867;BME280;36839;51.946;21.002;2022-09-24T05:15:28;100162.84;;;2.78;100.00
50867;BME280;36839;51.946;21.002;2022-09-24T05:17:54;100161.07;;;2.90;100.00
50867;BME280;36839;51.946;21.002;2022-09-24T05:20:22;100161.07;;;2.90;100.00
50867;BME280;36839;51.946;21.002;2022-09-24T05:22:50;100158.05;;;3.14;100.00
50867;BME280;36839;51.946;21.002;2022-09-24T05:25:18;100158.05;;;3.14;100.00
50867;BME280;36839;51.946;21.002;2022-09-24T05:27:48;100157.48;;;3.39;100.00
50867;BME280;36839;51.946;21.002;2022-09-24T05:30:17;100154.23;;;3.49;100.00
50867;BME280;36839;51.946;21.002;2022-09-24T05:32:46;100162.01;;;3.61;100.00
50867;BME280;36839;51.946;21.002;2022-09-24T05:35:26;100161.25;;;3.72;100.00
50867;BME280;36839;51.946;21.002;2022-09-24T05:37:55;100164.35;;;3.85;100.00
50867;BME280;36839;51.946;21.002;2022-09-24T05:40:21;100164.35;;;3.85;100.00
50867;BME280;36839;51.946;21.002;2022-09-24T05:43:10;100156.22;;;3.97;100.00
50867;BME280;36839;51.946;21.002;2022-09-24T05:45:38;100160.16;;;4.19;100.00
50867;BME280;36839;51.946;21.002;2022-09-24T05:48:06;100160.16;;;4.19;100.00
50867;BME280;36839;51.946;21.002;2022-09-24T05:50:38;100156.77;;;4.36;100.00
50867;BME280;36839;51.946;21.002;2022-09-24T05:53:05;100154.78;;;4.43;100.00
50867;BME280;36839;51.946;21.002;2022-09-24T05:55:32;100162.31;;;4.47;100.00
50867;BME280;36839;51.946;21.002;2022-09-24T05:58:08;100166.63;;;4.55;100.00
50867;BME280;36839;51.946;21.002;2022-09-24T06:00:35;100165.67;;;4.61;100.00
50867;BME280;36839;51.946;21.002;2022-09-24T06:03:13;100167.55;;;4.70;100.00
50867;BME280;36839;51.946;21.002;2022-09-24T06:05:44;100171.69;;;4.81;100.00
50867;BME280;36839;51.946;21.002;2022-09-24T06:08:16;100170.42;;;4.96;100.00
50867;BME280;36839;51.946;21.002;2022-09-24T06:10:45;100170.42;;;4.96;100.00
50867;BME280;36839;51.946;21.002;2022-09-24T06:13:18;100179.33;;;5.12;100.00
50867;BME280;36839;51.946;21.002;2022-09-24T06:15:48;100174.16;;;5.36;100.00
50867;BME280;36839;51.946;21.002;2022-09-24T06:18:18;100174.16;;;5.36;100.00
50867;BME280;36839;51.946;21.002;2022-09-24T06:20:50;100177.97;;;5.47;100.00
50867;BME280;36839;51.946;21.002;2022-09-24T06:23:19;100172.66;;;5.66;100.00
50867;BME280;36839;51.946;21.002;2022-09-24T06:25:50;100170.28;;;5.82;100.00
50867;BME280;36839;51.946;21.002;2022-09-24T06:28:18;100170.28;;;5.82;100.00
50867;BME280;36839;51.946;21.002;2022-09-24T06:30:46;100170.11;;;5.97;100.00
50867;BME280;36839;51.946;21.002;2022-09-24T06:33:13;100167.01;;;6.34;100.00
50867;BME280;36839;51.946;21.002;2022-09-24T06:35:45;100167.01;;;6.34;100.00
50867;BME280;36839;51.946;21.002;2022-09-24T06:38:15;100166.35;;;6.55;100.00
50867;BME280;36839;51.946;21.002;2022-09-24T06:40:44;100167.13;;;6.99;100.00
50867;BME280;36839;51.946;21.002;2022-09-24T06:43:11;100167.13;;;6.99;100.00
50867;BME280;36839;51.946;21.002;2022-09-24T06:45:38;100177.50;;;7.44;100.00
50867;BME280;36839;51.946;21.002;2022-09-24T06:48:09;100177.50;;;7.44;100.00
50867;BME280;36839;51.946;21.002;2022-09-24T06:50:44;100174.52;;;7.65;100.00
50867;BME280;36839;51.946;21.002;2022-09-24T06:53:11;100176.14;;;8.02;100.00
50867;BME280;36839;51.946;21.002;2022-09-24T06:55:39;100177.47;;;8.19;100.00
50867;BME280;36839;51.946;21.002;2022-09-24T06:58:15;100177.47;;;8.19;100.00
50867;BME280;36839;51.946;21.002;2022-09-24T07:00:48;100180.14;;;8.55;100.00
50867;BME280;36839;51.946;21.002;2022-09-24T07:03:14;100183.13;;;8.78;100.00
50867;BME280;36839;51.946;21.002;2022-09-24T07:05:44;100187.71;;;8.95;100.00
50867;BME280;36839;51.946;21.002;2022-09-24T07:08:13;100184.30;;;9.12;100.00
50867;BME280;36839;51.946;21.002;2022-09-24T07:10:43;100184.30;;;9.12;100.00
50867;BME280;36839;51.946;21.002;2022-09-24T07:13:13;100187.64;;;9.49;100.00
50867;BME280;36839;51.946;21.002;2022-09-24T07:15:42;100184.16;;;9.63;100.00
50867;BME280;36839;51.946;21.002;2022-09-24T07:18:11;100184.16;;;9.63;100.00
50867;BME280;36839;51.946;21.002;2022-09-24T07:20:37;100190.13;;;9.92;100.00
50867;BME280;36839;51.946;21.002;2022-09-24T07:23:08;100189.91;;;10.04;100.00
50867;BME280;36839;51.946;21.002;2022-09-24T07:25:36;100196.08;;;10.16;100.00
50867;BME280;36839;51.946;21.002;2022-09-24T07:28:10;100193.05;;;10.20;100.00
50867;BME280;36839;51.946;21.002;2022-09-24T07:30:34;100196.44;;;10.30;100.00
50867;BME280;36839;51.946;21.002;2022-09-24T07:33:05;100202.00;;;10.40;100.00
50867;BME280;36839;51.946;21.002;2022-09-24T07:35:33;100206.17;;;10.50;100.00
50867;BME280;36839;51.946;21.002;2022-09-24T07:38:06;100194.89;;;10.59;100.00
50867;BME280;36839;51.946;21.002;2022-09-24T07:40:35;100204.89;;;10.71;100.00
50867;BME280;36839;51.946;21.002;2022-09-24T07:43:06;100208.52;;;10.81;100.00
50867;BME280;36839;51.946;21.002;2022-09-24T07:45:36;100204.64;;;10.87;100.00
50867;BME280;36839;51.946;21.002;2022-09-24T07:48:04;100204.64;;;10.87;100.00
50867;BME280;36839;51.946;21.002;2022-09-24T07:50:34;100205.50;;;11.08;100.00
50867;BME280;36839;51.946;21.002;2022-09-24T07:53:00;100206.08;;;11.15;100.00
50867;BME280;36839;51.946;21.002;2022-09-24T07:55:29;100206.36;;;11.24;100.00
50867;BME280;36839;51.946;21.002;2022-09-24T07:57:59;100206.36;;;11.24;100.00
50867;BME280;36839;51.946;21.002;2022-09-24T08:00:30;100206.65;;;11.33;100.00
50867;BME280;36839;51.946;21.002;2022-09-24T08:03:01;100206.65;;;11.33;100.00
50867;BME280;36839;51.946;21.002;2022-09-24T08:05:34;100203.34;;;11.41;100.00
50867;BME280;36839;51.946;21.002;2022-09-24T08:08:01;100206.92;;;11.62;100.00
50867;BME280;36839;51.946;21.002;2022-09-24T08:10:28;100204.14;;;11.72;99.59
50867;BME280;36839;51.946;21.002;2022-09-24T08:12:59;100214.94;;;11.79;97.53
50867;BME280;36839;51.946;21.002;2022-09-24T08:15:24;100214.94;;;11.79;97.53
50867;BME280;36839;51.946;21.002;2022-09-24T08:17:53;100212.76;;;11.86;96.33
50867;BME280;36839;51.946;21.002;2022-09-24T08:20:19;100212.99;;;11.99;93.81
50867;BME280;36839;51.946;21.002;2022-09-24T08:22:48;100208.27;;;12.08;93.88
50867;BME280;36839;51.946;21.002;2022-09-24T08:25:14;100211.57;;;12.17;93.51
50867;BME280;36839;51.946;21.002;2022-09-24T08:27:40;100205.19;;;12.24;92.61
50867;BME280;36839;51.946;21.002;2022-09-24T08:30:08;100206.53;;;12.35;92.52
50867;BME280;36839;51.946;21.002;2022-09-24T08:32:35;100206.53;;;12.35;92.52
50867;BME280;36839;51.946;21.002;2022-09-24T08:35:03;100210.34;;;12.54;90.98
50867;BME280;36839;51.946;21.002;2022-09-24T08:37:35;100214.18;;;12.63;91.35
50867;BME280;36839;51.946;21.002;2022-09-24T08:40:04;100214.18;;;12.63;91.35
50867;BME280;36839;51.946;21.002;2022-09-24T08:42:37;100216.86;;;12.81;88.43
50867;BME280;36839;51.946;21.002;2022-09-24T08:45:07;100218.47;;;12.87;85.94
50867;BME280;36839;51.946;21.002;2022-09-24T08:48:07;100218.47;;;12.87;85.94
50867;BME280;36839;51.946;21.002;2022-09-24T08:50:35;100217.88;;;12.95;85.84
50867;BME280;36839;51.946;21.002;2022-09-24T08:53:15;100220.03;;;13.08;85.12
50867;BME280;36839;51.946;21.002;2022-09-24T08:55:47;100218.04;;;13.14;82.06
50867;BME280;36839;51.946;21.002;2022-09-24T09:12:11;100213.42;;;13.46;80.07
50867;BME280;36839;51.946;21.002;2022-09-24T09:14:44;100216.16;;;13.49;77.69
50867;BME280;36839;51.946;21.002;2022-09-24T09:17:20;100216.16;;;13.49;77.69
50867;BME280;36839;51.946;21.002;2022-09-24T09:19:47;100208.34;;;13.53;71.57
50867;BME280;36839;51.946;21.002;2022-09-24T09:22:15;100207.22;;;13.57;71.50
50867;BME280;36839;51.946;21.002;2022-09-24T09:24:50;100204.39;;;13.62;73.79
50867;BME280;36839;51.946;21.002;2022-09-24T09:27:19;100209.55;;;13.73;73.43
50867;BME280;36839;51.946;21.002;2022-09-24T09:29:55;100207.80;;;13.83;73.23
50867;BME280;36839;51.946;21.002;2022-09-24T09:38:05;100208.19;;;14.03;71.53
50867;BME280;36839;51.946;21.002;2022-09-24T09:40:36;100208.19;;;14.03;71.53
50867;BME280;36839;51.946;21.002;2022-09-24T09:43:09;100208.34;;;14.11;71.67
50867;BME280;36839;51.946;21.002;2022-09-24T09:46:05;100207.77;;;14.14;71.91
50867;BME280;36839;51.946;21.002;2022-09-24T09:48:47;100207.73;;;14.17;71.12
50867;BME280;36839;51.946;21.002;2022-09-24T09:51:18;100202.33;;;14.28;72.19
50867;BME280;36839;51.946;21.002;2022-09-24T09:53:53;100202.33;;;14.28;72.19
50867;BME280;36839;51.946;21.002;2022-09-24T09:56:39;100198.77;;;14.49;73.07
50867;BME280;36839;51.946;21.002;2022-09-24T10:01:41;100201.54;;;14.51;69.99
50867;BME280;36839;51.946;21.002;2022-09-24T10:04:40;100193.90;;;14.62;70.29
50867;BME280;36839;51.946;21.002;2022-09-24T10:06:47;100193.69;;;14.56;66.12
50867;BME280;36839;51.946;21.002;2022-09-24T10:09:18;100195.90;;;14.56;69.26
50867;BME280;36839;51.946;21.002;2022-09-24T10:11:46;100196.11;;;14.63;69.09
50867;BME280;36839;51.946;21.002;2022-09-24T10:14:15;100194.37;;;14.69;70.78
50867;BME280;36839;51.946;21.002;2022-09-24T10:16:48;100196.80;;;14.73;72.06
50867;BME280;36839;51.946;21.002;2022-09-24T10:21:44;100199.38;;;14.89;69.37
50867;BME280;36839;51.946;21.002;2022-09-24T10:24:17;100196.47;;;14.96;68.40
50867;BME280;36839;51.946;21.002;2022-09-24T10:26:46;100188.11;;;14.99;69.07
50867;BME280;36839;51.946;21.002;2022-09-24T10:29:23;100196.36;;;15.04;70.20
50867;BME280;36839;51.946;21.002;2022-09-24T10:32:24;100196.83;;;15.11;68.40
50867;BME280;36839;51.946;21.002;2022-09-24T10:34:57;100192.86;;;15.14;65.38
50867;BME280;36839;51.946;21.002;2022-09-24T10:37:24;100191.72;;;15.18;65.83
50867;BME280;36839;51.946;21.002;2022-09-24T10:39:59;100191.72;;;15.18;65.83
50867;BME280;36839;51.946;21.002;2022-09-24T10:42:29;100190.00;;;15.38;68.00
50867;BME280;36839;51.946;21.002;2022-09-24T10:44:59;100190.00;;;15.38;68.00
50867;BME280;36839;51.946;21.002;2022-09-24T10:47:36;100175.99;;;15.60;69.50
50867;BME280;36839;51.946;21.002;2022-09-24T10:55:53;100180.78;;;15.89;64.02
50867;BME280;36839;51.946;21.002;2022-09-24T11:01:20;100171.16;;;15.98;66.63
50867;BME280;36839;51.946;21.002;2022-09-24T11:21:29;100171.72;;;15.97;58.82
50867;BME280;36839;51.946;21.002;2022-09-24T11:27:40;100169.70;;;16.00;57.88
50867;BME280;36839;51.946;21.002;2022-09-24T11:32:21;100159.83;;;16.49;58.59
50867;BME280;36839;51.946;21.002;2022-09-24T11:46:22;100163.25;;;16.57;53.54
50867;BME280;36839;51.946;21.002;2022-09-24T11:54:01;100152.89;;;16.47;53.23
50867;BME280;36839;51.946;21.002;2022-09-24T12:02:12;100135.72;;;16.42;53.48
50867;BME280;36839;51.946;21.002;2022-09-24T12:04:49;100135.72;;;16.42;53.48
50867;BME280;36839;51.946;21.002;2022-09-24T12:07:20;100135.91;;;16.46;52.87
50867;BME280;36839;51.946;21.002;2022-09-24T12:09:50;100136.83;;;16.55;50.84
50867;BME280;36839;51.946;21.002;2022-09-24T12:12:23;100136.83;;;16.55;49.33
50867;BME280;36839;51.946;21.002;2022-09-24T12:15:12;100134.86;;;16.55;50.27
50867;BME280;36839;51.946;21.002;2022-09-24T12:17:41;100130.68;;;16.55;51.06
50867;BME280;36839;51.946;21.002;2022-09-24T12:20:22;100133.78;;;16.54;52.20
50867;BME280;36839;51.946;21.002;2022-09-24T12:22:54;100129.92;;;16.52;51.09
50867;BME280;36839;51.946;21.002;2022-09-24T12:25:26;100132.89;;;16.56;50.54
50867;BME280;36839;51.946;21.002;2022-09-24T12:27:57;100128.39;;;16.57;47.64
50867;BME280;36839;51.946;21.002;2022-09-24T12:30:40;100124.66;;;16.51;45.75
50867;BME280;36839;51.946;21.002;2022-09-24T12:36:11;100127.64;;;16.54;52.47
50867;BME280;36839;51.946;21.002;2022-09-24T12:38:51;100120.86;;;16.58;50.36
50867;BME280;36839;51.946;21.002;2022-09-24T12:44:17;100117.27;;;16.71;50.19
50867;BME280;36839;51.946;21.002;2022-09-24T12:46:54;100118.80;;;16.77;50.67
50867;BME280;36839;51.946;21.002;2022-09-24T12:49:31;100118.80;;;16.77;50.67
50867;BME280;36839;51.946;21.002;2022-09-24T12:52:02;100122.42;;;16.78;50.16
50867;BME280;36839;51.946;21.002;2022-09-24T12:54:36;100116.39;;;16.84;53.34
50867;BME280;36839;51.946;21.002;2022-09-24T12:57:08;100125.64;;;16.82;50.44
50867;BME280;36839;51.946;21.002;2022-09-24T12:59:50;100125.64;;;16.82;50.44
50867;BME280;36839;51.946;21.002;2022-09-24T13:02:26;100124.48;;;16.72;51.44
50867;BME280;36839;51.946;21.002;2022-09-24T13:05:13;100116.44;;;16.71;53.19
50867;BME280;36839;51.946;21.002;2022-09-24T13:07:38;100122.47;;;16.62;50.82
50867;BME280;36839;51.946;21.002;2022-09-24T13:10:23;100119.11;;;16.62;51.92
50867;BME280;36839;51.946;21.002;2022-09-24T13:12:53;100120.12;;;16.66;51.87
50867;BME280;36839;51.946;21.002;2022-09-24T13:15:36;100120.12;;;16.66;51.87
50867;BME280;36839;51.946;21.002;2022-09-24T13:20:41;100117.53;;;16.59;49.87
50867;BME280;36839;51.946;21.002;2022-09-24T13:25:56;100108.13;;;16.54;50.67
50867;BME280;36839;51.946;21.002;2022-09-24T13:28:26;100108.13;;;16.54;50.67
50867;BME280;36839;51.946;21.002;2022-09-24T13:33:43;100105.80;;;16.59;49.42
50867;BME280;36839;51.946;21.002;2022-09-24T13:39:04;100099.45;;;16.70;48.02
50867;BME280;36839;51.946;21.002;2022-09-24T13:44:25;100101.18;;;16.79;48.08
50867;BME280;36839;51.946;21.002;2022-09-24T13:47:00;100103.34;;;16.94;50.72
50867;BME280;36839;51.946;21.002;2022-09-24T13:49:24;100107.73;;;16.97;48.32
50867;BME280;36839;51.946;21.002;2022-09-24T13:52:04;100104.05;;;17.10;48.98
50867;BME280;36839;51.946;21.002;2022-09-24T13:54:34;100100.19;;;17.20;47.00
50867;BME280;36839;51.946;21.002;2022-09-24T13:57:13;100099.86;;;17.22;48.54
50867;BME280;36839;51.946;21.002;2022-09-24T13:59:41;100099.86;;;17.22;48.54
50867;BME280;36839;51.946;21.002;2022-09-24T14:02:24;100091.88;;;17.18;49.11
50867;BME280;36839;51.946;21.002;2022-09-24T14:04:58;100092.81;;;17.24;49.25
50867;BME280;36839;51.946;21.002;2022-09-24T14:07:28;100099.94;;;17.19;48.96
50867;BME280;36839;51.946;21.002;2022-09-24T14:10:06;100097.33;;;17.11;48.61
50867;BME280;36839;51.946;21.002;2022-09-24T14:12:33;100097.33;;;17.11;48.61
50867;BME280;36839;51.946;21.002;2022-09-24T14:15:05;100093.28;;;17.06;53.09
50867;BME280;36839;51.946;21.002;2022-09-24T14:17:31;100090.92;;;17.11;47.70
50867;BME280;36839;51.946;21.002;2022-09-24T14:19:59;100090.92;;;17.11;47.70
50867;BME280;36839;51.946;21.002;2022-09-24T14:22:32;100081.52;;;16.96;46.70
50867;BME280;36839;51.946;21.002;2022-09-24T14:25:05;100085.34;;;17.00;47.23
50867;BME280;36839;51.946;21.002;2022-09-24T14:27:39;100081.73;;;16.99;46.78
50867;BME280;36839;51.946;21.002;2022-09-24T14:30:14;100081.73;;;16.99;46.78
50867;BME280;36839;51.946;21.002;2022-09-24T14:32:40;100079.26;;;17.09;46.61
50867;BME280;36839;51.946;21.002;2022-09-24T14:35:32;100079.26;;;17.09;46.61
50867;BME280;36839;51.946;21.002;2022-09-24T14:40:49;100078.35;;;17.45;47.91
50867;BME280;36839;51.946;21.002;2022-09-24T14:43:33;100083.13;;;17.53;48.23
50867;BME280;36839;51.946;21.002;2022-09-24T14:46:06;100076.93;;;17.56;49.18
50867;BME280;36839;51.946;21.002;2022-09-24T14:48:36;100075.95;;;17.60;51.06
50867;BME280;36839;51.946;21.002;2022-09-24T14:51:19;100082.36;;;17.61;46.10
50867;BME280;36839;51.946;21.002;2022-09-24T14:53:36;100082.36;;;17.61;46.10
50867;BME280;36839;51.946;21.002;2022-09-24T14:56:20;100078.63;;;17.65;45.32
50867;BME280;36839;51.946;21.002;2022-09-24T14:58:48;100078.63;;;17.65;45.32